createdAt,value
2023-05-09T00:01:18.390Z,91.36
2023-05-09T00:03:44.865Z,90.72
2023-05-09T00:06:11.610Z,90.86
2023-05-09T00:08:38.091Z,91.94
2023-05-09T00:11:04.734Z,91.31
2023-05-09T00:13:31.109Z,90.82
2023-05-09T00:15:58.444Z,91.50
2023-05-09T00:18:24.957Z,91.88
2023-05-09T00:20:51.401Z,91.82
2023-05-09T00:23:17.937Z,91.17
2023-05-09T00:25:44.493Z,90.60
2023-05-09T00:28:11.192Z,90.79
2023-05-09T00:30:37.781Z,90.52
2023-05-09T00:33:04.492Z,90.83
2023-05-09T00:35:32.259Z,90.34
2023-05-09T00:37:59.440Z,90.17
2023-05-09T00:40:26.034Z,91.12
2023-05-09T00:42:52.559Z,92.70
2023-05-09T00:45:19.096Z,92.94
2023-05-09T00:47:45.632Z,92.90
2023-05-09T00:50:12.311Z,92.37
2023-05-09T00:52:39.157Z,91.20
2023-05-09T00:55:08.263Z,91.12
2023-05-09T00:57:35.111Z,90.05
2023-05-09T01:00:01.846Z,90.40
2023-05-09T01:02:28.666Z,90.42
2023-05-09T01:04:56.005Z,90.94
2023-05-09T01:07:43.614Z,91.33
2023-05-09T01:10:26.577Z,91.88
2023-05-09T01:13:00.222Z,90.48
2023-05-09T01:15:36.221Z,90.40
2023-05-09T01:18:28.310Z,90.27
2023-05-09T01:21:01.850Z,90.10
2023-05-09T01:23:45.351Z,90.22
2023-05-09T01:26:32.650Z,90.24
2023-05-09T01:29:29.220Z,89.40
2023-05-09T01:31:58.078Z,89.03
2023-05-09T01:34:27.263Z,89.29
2023-05-09T01:36:58.458Z,89.47
2023-05-09T01:39:26.954Z,89.56
2023-05-09T01:41:56.664Z,90.96
2023-05-09T01:44:25.517Z,90.83
2023-05-09T01:46:54.674Z,90.18
2023-05-09T01:49:22.709Z,91.27
2023-05-09T01:51:50.694Z,90.99
2023-05-09T01:54:18.499Z,90.42
2023-05-09T01:56:46.008Z,90.86
2023-05-09T01:59:16.209Z,91.32
2023-05-09T02:01:44.634Z,91.31
2023-05-09T02:04:12.654Z,91.70
2023-05-09T02:06:40.381Z,91.12
2023-05-09T02:09:07.142Z,90.87
2023-05-09T02:11:33.592Z,92.03
2023-05-09T02:14:00.195Z,92.23
2023-05-09T02:16:27.739Z,92.08
2023-05-09T02:18:54.240Z,91.98
2023-05-09T02:21:20.755Z,92.45
2023-05-09T02:23:47.644Z,92.27
2023-05-09T02:26:14.749Z,93.33
2023-05-09T02:28:44.006Z,93.42
2023-05-09T02:31:13.955Z,94.58
2023-05-09T02:33:42.874Z,96.63
2023-05-09T02:36:10.232Z,96.90
2023-05-09T02:38:37.005Z,97.59
2023-05-09T02:41:03.399Z,97.15
2023-05-09T02:43:29.786Z,96.20
2023-05-09T02:45:56.336Z,95.34
2023-05-09T02:48:23.231Z,95.77
2023-05-09T02:50:49.720Z,96.64
2023-05-09T02:53:16.230Z,96.61
2023-05-09T02:55:42.678Z,97.21
2023-05-09T02:58:14.087Z,97.49
2023-05-09T03:00:41.825Z,97.42
2023-05-09T03:03:08.513Z,96.36
2023-05-09T03:05:35.267Z,95.83
2023-05-09T03:08:01.752Z,95.38
2023-05-09T03:10:28.298Z,94.60
2023-05-09T03:12:54.859Z,93.90
2023-05-09T03:15:21.553Z,94.15
2023-05-09T03:17:48.052Z,94.11
2023-05-09T03:20:15.702Z,94.91
2023-05-09T03:22:42.334Z,96.13
2023-05-09T03:25:09.479Z,97.32
2023-05-09T03:27:35.966Z,99.66
2023-05-09T03:30:03.846Z,99.36
2023-05-09T03:32:30.505Z,98.11
2023-05-09T03:34:57.300Z,98.50
2023-05-09T03:37:25.476Z,99.23
2023-05-09T03:39:53.210Z,99.05
2023-05-09T03:42:19.642Z,99.13
2023-05-09T03:44:46.366Z,98.84
2023-05-09T03:47:12.761Z,98.53
2023-05-09T03:49:39.227Z,99.17
2023-05-09T03:52:05.794Z,99.61
2023-05-09T03:54:32.188Z,99.81
2023-05-09T03:56:58.624Z,100.00
2023-05-09T03:59:25.059Z,100.00
2023-05-09T04:01:51.582Z,99.46
2023-05-09T04:04:18.126Z,99.00
2023-05-09T04:06:44.602Z,99.11
2023-05-09T04:09:11.218Z,98.01
2023-05-09T04:11:37.644Z,97.17
2023-05-09T04:14:07.112Z,97.02
2023-05-09T04:16:33.941Z,96.57
2023-05-09T04:19:00.500Z,96.38
2023-05-09T04:21:26.883Z,95.88
2023-05-09T04:23:53.419Z,96.17
2023-05-09T04:26:22.562Z,95.91
2023-05-09T04:28:49.007Z,95.57
2023-05-09T04:31:15.631Z,96.09
2023-05-09T04:33:42.173Z,95.56
2023-05-09T04:36:09.016Z,94.63
2023-05-09T04:38:35.463Z,94.42
2023-05-09T04:41:02.009Z,94.78
2023-05-09T04:43:28.509Z,95.28
2023-05-09T04:45:54.928Z,94.73
2023-05-09T04:48:21.420Z,94.01
2023-05-09T04:50:48.613Z,93.65
2023-05-09T04:53:15.172Z,93.46
2023-05-09T04:55:41.613Z,93.10
2023-05-09T04:58:09.394Z,92.62
2023-05-09T05:00:36.166Z,91.03
2023-05-09T05:03:02.947Z,89.87
2023-05-09T05:05:29.639Z,90.05
2023-05-09T05:07:56.532Z,89.77
2023-05-09T05:10:23.083Z,89.92
2023-05-09T05:12:49.785Z,90.35
2023-05-09T05:15:17.645Z,88.06
2023-05-09T05:17:44.102Z,86.38
2023-05-09T05:20:10.930Z,84.47
2023-05-09T05:22:37.448Z,81.90
2023-05-09T05:25:05.050Z,79.17
2023-05-09T05:27:31.764Z,80.01
2023-05-09T05:30:04.662Z,83.70
2023-05-09T05:32:31.260Z,85.90
2023-05-09T05:34:57.847Z,86.99
2023-05-09T05:37:24.405Z,87.63
2023-05-09T05:39:51.710Z,82.64
2023-05-09T05:42:18.196Z,78.82
2023-05-09T05:44:44.860Z,76.66
2023-05-09T05:47:11.600Z,74.80
2023-05-09T05:49:38.575Z,74.19
2023-05-09T05:52:05.215Z,70.63
2023-05-09T05:54:31.734Z,70.14
2023-05-09T05:56:58.347Z,70.81
2023-05-09T05:59:33.581Z,71.25
2023-05-09T06:02:00.265Z,73.31
2023-05-09T06:04:28.125Z,75.79
2023-05-09T06:06:54.653Z,77.64
2023-05-09T06:09:21.178Z,73.95
2023-05-09T06:11:47.698Z,75.14
2023-05-09T06:14:14.174Z,74.46
2023-05-09T06:16:41.196Z,73.60
2023-05-09T06:19:07.973Z,76.25
2023-05-09T06:21:34.490Z,78.86
2023-05-09T06:24:08.362Z,81.02
2023-05-09T06:26:37.065Z,82.38
2023-05-09T06:29:06.009Z,83.34
2023-05-09T06:31:33.109Z,82.71
2023-05-09T06:33:59.651Z,82.66
2023-05-09T06:36:26.219Z,83.21
2023-05-09T06:38:52.670Z,82.31
2023-05-09T06:41:19.236Z,82.82
2023-05-09T06:43:45.725Z,81.33
2023-05-09T06:46:12.307Z,80.98
2023-05-09T06:48:41.228Z,82.18
2023-05-09T06:51:11.497Z,78.64
2023-05-09T06:53:38.438Z,79.02
2023-05-09T06:56:05.275Z,79.57
2023-05-09T06:58:31.888Z,80.89
2023-05-09T07:00:58.835Z,82.05
2023-05-09T07:03:26.098Z,82.90
2023-05-09T07:05:52.706Z,83.16
2023-05-09T07:08:19.251Z,84.45
2023-05-09T07:10:45.770Z,84.08
2023-05-09T07:13:12.294Z,83.61
2023-05-09T07:15:42.645Z,84.93
2023-05-09T07:18:09.843Z,84.99
2023-05-09T07:20:36.565Z,84.38
2023-05-09T07:23:04.173Z,83.91
2023-05-09T07:25:30.794Z,83.28
2023-05-09T07:27:57.845Z,82.54
2023-05-09T07:30:25.266Z,82.79
2023-05-09T07:32:52.254Z,82.08
2023-05-09T07:35:19.882Z,80.92
2023-05-09T07:37:46.431Z,81.55
2023-05-09T07:40:13.826Z,81.66
2023-05-09T07:42:40.782Z,80.41
2023-05-09T07:45:07.853Z,82.24
2023-05-09T07:47:34.534Z,83.10
2023-05-09T07:50:04.228Z,83.22
2023-05-09T07:52:30.995Z,83.17
2023-05-09T07:54:57.652Z,84.53
2023-05-09T07:57:24.224Z,83.58
2023-05-09T07:59:50.796Z,83.37
2023-05-09T08:02:17.449Z,82.32
2023-05-09T08:04:44.037Z,81.28
2023-05-09T08:07:11.792Z,80.87
2023-05-09T08:09:38.383Z,80.69
2023-05-09T08:12:05.317Z,80.44
2023-05-09T08:14:34.498Z,78.39
2023-05-09T08:17:01.143Z,78.06
2023-05-09T08:19:27.679Z,76.72
2023-05-09T08:21:54.523Z,77.32
2023-05-09T08:24:21.318Z,76.32
2023-05-09T08:26:47.763Z,76.25
2023-05-09T08:29:14.672Z,76.44
2023-05-09T08:31:41.210Z,76.30
2023-05-09T08:34:07.859Z,76.04
2023-05-09T08:36:34.440Z,76.40
2023-05-09T08:39:01.006Z,76.32
2023-05-09T08:41:30.957Z,75.90
2023-05-09T08:43:57.650Z,75.73
2023-05-09T08:46:44.207Z,76.70
2023-05-09T08:49:11.054Z,77.13
2023-05-09T08:51:38.290Z,76.12
2023-05-09T08:54:05.515Z,76.10
2023-05-09T08:56:34.187Z,76.05
2023-05-09T08:59:00.932Z,76.14
2023-05-09T09:01:27.916Z,76.90
2023-05-09T09:03:54.590Z,77.12
2023-05-09T09:06:23.345Z,76.92
2023-05-09T09:08:50.974Z,77.87
2023-05-09T09:11:18.747Z,78.55
2023-05-09T09:13:46.850Z,77.46
2023-05-09T09:16:21.117Z,77.12
2023-05-09T09:18:51.650Z,77.06
2023-05-09T09:21:19.756Z,76.49
2023-05-09T09:23:47.585Z,76.65
2023-05-09T09:26:14.436Z,77.44
2023-05-09T09:28:41.661Z,76.05
2023-05-09T09:31:28.367Z,75.86
2023-05-09T09:34:02.265Z,76.98
2023-05-09T09:36:36.845Z,77.12
2023-05-09T09:39:05.096Z,78.89
2023-05-09T09:41:33.308Z,79.99
2023-05-09T09:44:07.373Z,79.70
2023-05-09T09:46:55.194Z,79.51
2023-05-09T09:49:22.465Z,79.98
2023-05-09T09:51:54.345Z,79.76
2023-05-09T09:54:21.455Z,81.17
2023-05-09T09:56:54.457Z,82.58
2023-05-09T09:59:23.585Z,82.42
2023-05-09T10:01:56.452Z,82.36
2023-05-09T10:04:23.708Z,81.46
2023-05-09T10:06:57.550Z,82.02
2023-05-09T10:09:24.754Z,79.46
2023-05-09T10:11:52.442Z,78.80
2023-05-09T10:14:21.469Z,76.17
2023-05-09T10:16:49.723Z,77.46
2023-05-09T10:19:23.410Z,77.29
2023-05-09T10:21:52.863Z,77.51
2023-05-09T10:24:28.369Z,76.55
2023-05-09T10:27:06.087Z,75.96
2023-05-09T10:29:38.857Z,76.69
2023-05-09T10:32:15.499Z,75.56
2023-05-09T10:34:47.798Z,76.06
2023-05-09T10:37:16.817Z,75.08
2023-05-09T10:39:44.271Z,74.64
2023-05-09T10:42:12.404Z,73.55
2023-05-09T10:44:39.056Z,74.67
2023-05-09T10:47:06.637Z,74.72
2023-05-09T10:49:35.469Z,72.83
2023-05-09T10:52:03.807Z,73.16
2023-05-09T10:54:34.305Z,73.41
2023-05-09T10:57:01.039Z,74.48
2023-05-09T10:59:46.426Z,74.87
2023-05-09T11:02:14.619Z,74.06
2023-05-09T11:04:41.222Z,75.62
2023-05-09T11:07:26.794Z,77.46
2023-05-09T11:10:07.311Z,77.25
2023-05-09T11:12:34.157Z,77.04
2023-05-09T11:15:08.230Z,78.04
2023-05-09T11:17:38.786Z,79.12
2023-05-09T11:20:06.432Z,78.88
2023-05-09T11:22:44.310Z,79.02
2023-05-09T11:25:13.152Z,76.97
2023-05-09T11:27:47.845Z,76.29
2023-05-09T11:30:18.973Z,76.51
2023-05-09T11:32:55.270Z,75.89
2023-05-09T11:35:23.601Z,75.18
2023-05-09T11:38:00.431Z,75.71
2023-05-09T11:40:28.267Z,76.33
2023-05-09T11:42:58.333Z,75.03
2023-05-09T11:45:30.454Z,76.74
2023-05-09T11:47:57.679Z,75.61
2023-05-09T11:50:24.644Z,76.92
2023-05-09T11:52:51.336Z,77.54
2023-05-09T11:55:22.655Z,77.90
2023-05-09T11:57:51.988Z,77.18
2023-05-09T12:00:20.992Z,77.95
2023-05-09T12:02:48.130Z,77.95
2023-05-09T12:05:16.858Z,78.16
2023-05-09T12:07:44.580Z,77.84
2023-05-09T12:10:19.891Z,79.30
2023-05-09T12:12:50.917Z,79.14
2023-05-09T12:15:18.591Z,78.93
2023-05-09T12:17:47.240Z,79.77
2023-05-09T12:20:14.866Z,80.92
2023-05-09T12:22:44.489Z,83.53
2023-05-09T12:25:12.092Z,84.85
2023-05-09T12:27:40.359Z,88.26
2023-05-09T12:30:10.151Z,91.44
2023-05-09T12:32:39.683Z,90.67
2023-05-09T12:35:10.562Z,89.82
2023-05-09T12:37:38.143Z,91.14
2023-05-09T12:40:09.347Z,91.42
2023-05-09T12:42:36.092Z,91.08
2023-05-09T12:45:03.596Z,88.90
2023-05-09T12:47:31.748Z,86.71
2023-05-09T12:49:59.446Z,88.84
2023-05-09T12:52:26.115Z,85.69
2023-05-09T12:54:53.888Z,82.46
2023-05-09T12:57:23.179Z,82.60
2023-05-09T12:59:50.146Z,83.05
2023-05-09T13:02:16.865Z,80.17
2023-05-09T13:04:45.996Z,80.27
2023-05-09T13:07:12.479Z,74.04
2023-05-09T13:09:55.603Z,70.57
2023-05-09T13:12:22.172Z,72.42
2023-05-09T13:14:48.892Z,73.81
2023-05-09T13:17:18.438Z,77.54
2023-05-09T13:19:47.785Z,75.67
2023-05-09T13:22:14.540Z,77.39
2023-05-09T13:24:44.136Z,79.14
2023-05-09T13:27:12.204Z,80.06
2023-05-09T13:29:39.063Z,79.02
2023-05-09T13:32:05.886Z,79.24
2023-05-09T13:34:32.396Z,75.51
2023-05-09T13:36:59.131Z,76.28
2023-05-09T13:39:25.677Z,74.77
2023-05-09T13:41:52.946Z,76.58
2023-05-09T13:44:19.566Z,78.41
2023-05-09T13:46:47.064Z,78.81
2023-05-09T13:49:13.679Z,77.05
2023-05-09T13:51:40.282Z,79.56
2023-05-09T13:54:12.425Z,80.94
2023-05-09T13:56:39.593Z,79.96
2023-05-09T13:59:07.317Z,81.59
2023-05-09T14:01:34.129Z,79.54
2023-05-09T14:04:01.164Z,80.51
2023-05-09T14:06:29.060Z,79.36
2023-05-09T14:08:56.549Z,82.08
2023-05-09T14:11:23.413Z,83.13
2023-05-09T14:13:49.890Z,82.14
2023-05-09T14:16:16.508Z,82.44
2023-05-09T14:18:42.962Z,82.65
2023-05-09T14:21:09.419Z,81.13
2023-05-09T14:23:36.067Z,81.60
2023-05-09T14:26:02.613Z,81.06
2023-05-09T14:28:29.066Z,81.48
2023-05-09T14:30:55.846Z,82.71
2023-05-09T14:33:22.257Z,81.16
2023-05-09T14:35:48.676Z,80.53
2023-05-09T14:38:15.828Z,80.84
2023-05-09T14:40:42.324Z,80.52
2023-05-09T14:43:09.581Z,80.14
2023-05-09T14:45:36.186Z,81.52
2023-05-09T14:48:03.609Z,78.34
2023-05-09T14:50:30.254Z,77.19
2023-05-09T14:52:57.302Z,77.04
2023-05-09T14:55:23.770Z,77.47
2023-05-09T14:57:50.192Z,77.84
2023-05-09T15:00:21.791Z,78.31
2023-05-09T15:02:49.388Z,78.10
2023-05-09T15:05:16.903Z,79.41
2023-05-09T15:07:43.431Z,78.56
2023-05-09T15:10:10.401Z,79.42
2023-05-09T15:12:36.932Z,79.87
2023-05-09T15:15:14.047Z,79.25
2023-05-09T15:17:40.970Z,81.31
2023-05-09T15:20:08.073Z,82.72
2023-05-09T15:22:34.789Z,82.96
2023-05-09T15:25:02.961Z,84.11
2023-05-09T15:27:31.446Z,84.63
2023-05-09T15:29:58.119Z,84.56
2023-05-09T15:32:24.704Z,84.28
2023-05-09T15:37:27.593Z,85.31
2023-05-09T15:39:54.036Z,86.50
2023-05-09T15:42:20.507Z,88.39
2023-05-09T15:44:49.708Z,87.93
2023-05-09T15:47:16.415Z,89.51
2023-05-09T15:49:43.002Z,89.81
2023-05-09T15:52:10.723Z,88.43
2023-05-09T15:54:37.907Z,87.08
2023-05-09T15:57:05.065Z,88.88
2023-05-09T15:59:31.544Z,89.01
2023-05-09T16:01:58.147Z,86.75
2023-05-09T16:04:24.713Z,88.85
2023-05-09T16:06:51.729Z,90.85
2023-05-09T16:09:20.828Z,89.60
2023-05-09T16:11:47.482Z,88.76
2023-05-09T16:14:13.995Z,90.66
2023-05-09T16:16:40.701Z,91.90
2023-05-09T16:19:07.217Z,92.88
2023-05-09T16:21:33.700Z,93.90
2023-05-09T16:24:05.038Z,93.46
2023-05-09T16:26:31.683Z,94.44
2023-05-09T16:28:58.222Z,93.17
2023-05-09T16:31:26.694Z,94.23
2023-05-09T16:33:54.337Z,94.14
2023-05-09T16:36:22.036Z,95.49
2023-05-09T16:38:48.678Z,95.13
2023-05-09T16:41:15.946Z,94.07
2023-05-09T16:43:42.770Z,96.43
2023-05-09T16:46:11.507Z,96.38
2023-05-09T16:48:38.011Z,95.23
2023-05-09T16:51:04.783Z,96.16
2023-05-09T16:53:31.287Z,96.22
2023-05-09T16:55:58.446Z,95.93
2023-05-09T16:58:25.295Z,96.53
2023-05-09T17:00:55.343Z,99.30
2023-05-09T17:03:22.021Z,98.44
2023-05-09T17:05:48.416Z,98.68
2023-05-09T17:08:15.225Z,100.00
2023-05-09T17:10:42.296Z,100.00
2023-05-09T17:13:09.029Z,100.00
2023-05-09T17:15:36.910Z,100.00
2023-05-09T17:18:04.682Z,100.00
2023-05-09T17:20:31.740Z,100.00
2023-05-09T17:22:58.154Z,100.00
2023-05-09T17:25:24.607Z,100.00
2023-05-09T17:27:51.180Z,100.00
2023-05-09T17:30:19.407Z,100.00
2023-05-09T17:32:48.009Z,100.00
2023-05-09T17:35:15.102Z,100.00
2023-05-09T17:37:41.545Z,100.00
2023-05-09T17:40:08.734Z,100.00
2023-05-09T17:42:35.228Z,100.00
2023-05-09T17:45:01.816Z,100.00
2023-05-09T17:47:28.839Z,100.00
2023-05-09T17:49:55.431Z,100.00
2023-05-09T17:52:22.059Z,100.00
2023-05-09T17:54:48.802Z,100.00
2023-05-09T17:57:15.239Z,100.00
2023-05-09T17:59:41.684Z,100.00
2023-05-09T18:02:08.289Z,100.00
2023-05-09T18:04:34.765Z,100.00
2023-05-09T18:07:01.533Z,100.00
2023-05-09T18:09:28.148Z,100.00
2023-05-09T18:11:54.626Z,100.00
2023-05-09T18:14:22.374Z,100.00
2023-05-09T18:16:48.943Z,100.00
2023-05-09T18:19:15.489Z,100.00
2023-05-09T18:21:41.925Z,100.00
2023-05-09T18:24:09.233Z,100.00
2023-05-09T18:26:35.929Z,100.00
2023-05-09T18:29:02.532Z,100.00
2023-05-09T18:31:31.151Z,100.00
2023-05-09T18:33:57.650Z,100.00
2023-05-09T18:36:24.085Z,100.00
2023-05-09T18:38:50.977Z,100.00
2023-05-09T18:41:17.576Z,100.00
2023-05-09T18:43:46.820Z,100.00
2023-05-09T18:46:17.663Z,100.00
2023-05-09T18:48:45.641Z,100.00
2023-05-09T18:51:12.190Z,100.00
2023-05-09T18:53:38.742Z,100.00
2023-05-09T18:56:05.379Z,100.00
2023-05-09T18:58:32.405Z,100.00
2023-05-09T19:00:59.161Z,100.00
2023-05-09T19:03:27.141Z,100.00
2023-05-09T19:05:53.927Z,100.00
2023-05-09T19:08:20.626Z,100.00
2023-05-09T19:10:47.128Z,100.00
2023-05-09T19:13:16.064Z,100.00
2023-05-09T19:15:43.066Z,100.00
2023-05-09T19:18:09.614Z,100.00
2023-05-09T19:20:36.131Z,100.00
2023-05-09T19:23:02.721Z,100.00
2023-05-09T19:25:33.731Z,100.00
2023-05-09T19:28:01.522Z,100.00
2023-05-09T19:30:27.958Z,100.00
2023-05-09T19:32:54.592Z,100.00
2023-05-09T19:35:21.195Z,100.00
2023-05-09T19:37:47.710Z,100.00
2023-05-09T19:40:14.883Z,100.00
2023-05-09T19:42:41.919Z,100.00
2023-05-09T19:45:08.916Z,100.00
2023-05-09T19:47:35.569Z,100.00
2023-05-09T19:50:02.179Z,100.00
2023-05-09T19:52:29.787Z,100.00
2023-05-09T19:54:56.226Z,100.00
2023-05-09T19:57:22.819Z,100.00
2023-05-09T19:59:49.244Z,100.00
2023-05-09T20:02:15.724Z,100.00
2023-05-09T20:04:46.545Z,100.00
2023-05-09T20:07:13.099Z,100.00
2023-05-09T20:09:39.511Z,100.00
2023-05-09T20:12:06.424Z,100.00
2023-05-09T20:14:32.949Z,100.00
2023-05-09T20:16:59.447Z,100.00
2023-05-09T20:19:25.983Z,100.00
2023-05-09T20:21:52.528Z,100.00
2023-05-09T20:24:19.766Z,100.00
2023-05-09T20:26:46.357Z,100.00
2023-05-09T20:29:12.730Z,100.00
2023-05-09T20:31:41.818Z,100.00
2023-05-09T20:34:12.288Z,100.00
2023-05-09T20:36:38.807Z,100.00
2023-05-09T20:39:05.293Z,100.00
2023-05-09T20:41:32.005Z,100.00
2023-05-09T20:44:03.592Z,100.00
2023-05-09T20:46:30.906Z,100.00
2023-05-09T20:48:57.278Z,100.00
2023-05-09T20:51:23.935Z,100.00
2023-05-09T20:53:50.364Z,100.00
2023-05-09T20:56:16.942Z,100.00
2023-05-09T20:58:43.350Z,100.00
2023-05-09T21:01:09.937Z,100.00
2023-05-09T21:03:36.451Z,100.00
2023-05-09T21:06:03.053Z,100.00
2023-05-09T21:08:29.564Z,100.00
2023-05-09T21:10:56.090Z,100.00
2023-05-09T21:13:22.837Z,100.00
2023-05-09T21:15:50.819Z,100.00
2023-05-09T21:18:17.492Z,100.00
2023-05-09T21:20:45.087Z,100.00
2023-05-09T21:23:11.816Z,100.00
2023-05-09T21:25:38.241Z,100.00
2023-05-09T21:28:04.827Z,100.00
2023-05-09T21:30:31.613Z,100.00
2023-05-09T21:32:58.080Z,100.00
2023-05-09T21:35:24.518Z,100.00
2023-05-09T21:37:52.543Z,100.00
2023-05-09T21:40:19.126Z,100.00
2023-05-09T21:42:46.836Z,100.00
2023-05-09T21:45:13.614Z,100.00
2023-05-09T21:47:40.545Z,100.00
2023-05-09T21:50:10.587Z,100.00
2023-05-09T21:52:37.066Z,100.00
2023-05-09T21:55:03.758Z,100.00
2023-05-09T21:57:30.310Z,100.00
2023-05-09T22:00:00.989Z,100.00
2023-05-09T22:02:31.215Z,100.00
2023-05-09T22:04:57.921Z,100.00
2023-05-09T22:07:24.414Z,100.00
2023-05-09T22:09:50.920Z,100.00
2023-05-09T22:12:17.326Z,100.00
2023-05-09T22:14:55.259Z,100.00
2023-05-09T22:17:23.045Z,100.00
2023-05-09T22:19:49.541Z,100.00
2023-05-09T22:22:16.037Z,100.00
2023-05-09T22:24:42.720Z,100.00
2023-05-09T22:27:09.835Z,100.00
2023-05-09T22:29:36.417Z,100.00
2023-05-09T22:32:03.630Z,100.00
2023-05-09T22:34:30.676Z,100.00
2023-05-09T22:36:59.955Z,100.00
2023-05-09T22:39:26.814Z,100.00
2023-05-09T22:41:53.208Z,100.00
2023-05-09T22:44:19.727Z,100.00
2023-05-09T22:46:46.271Z,100.00
2023-05-09T22:49:12.876Z,100.00
2023-05-09T22:51:39.709Z,100.00
2023-05-09T22:54:06.253Z,100.00
2023-05-09T22:56:33.258Z,100.00
2023-05-09T22:58:59.750Z,100.00
2023-05-09T23:01:27.402Z,100.00
2023-05-09T23:03:53.932Z,100.00
2023-05-09T23:06:20.311Z,100.00
2023-05-09T23:08:46.838Z,100.00
2023-05-09T23:11:13.308Z,100.00
2023-05-09T23:13:39.782Z,100.00
2023-05-09T23:16:06.702Z,100.00
2023-05-09T23:18:33.124Z,100.00
2023-05-09T23:20:59.522Z,100.00
2023-05-09T23:23:26.119Z,100.00
2023-05-09T23:25:52.593Z,100.00
2023-05-09T23:28:20.349Z,100.00
2023-05-09T23:30:46.910Z,100.00
2023-05-09T23:33:13.361Z,100.00
2023-05-09T23:35:39.772Z,100.00
2023-05-09T23:38:06.305Z,100.00
2023-05-09T23:40:32.936Z,100.00
2023-05-09T23:42:59.503Z,100.00
2023-05-09T23:45:26.089Z,100.00
2023-05-09T23:47:52.803Z,100.00
2023-05-09T23:50:19.466Z,100.00
2023-05-09T23:52:49.177Z,100.00
2023-05-09T23:55:17.704Z,100.00
2023-05-09T23:57:44.424Z,100.00
